Stibnite, Idaho
Current Conditions -  °F | °C
As of 1:51 PM on Saturday 20 Dec 2014 (Local Time) from KMYL Reporting Station
Overcast Overcast  
Wind Chill: 28°   Ceiling: 3700
Heat Index: 33°   Visibility: 10mi
Dew Point: 32°   Wind: 6mph
Humidity: 96%   Direction: 150°SSE
Pressure: 29.87"   Gusts: NA
Location:  45.0816°N, 115.287°W
Report Text: KMYL 202051Z AUTO 15005KT 10SM FEW004 SCT030 OVC037 01/00 A2987 RMK AO2 SLP133 60000 T00060000 56017
Loading
Personal Weather Stations






























Interactive Weather Map New forecast layout! Learn more

10-Day Weather Forecast

Advertisements
Track Severe Weather on mobile